Terminal Aerodrome Forecast
Issued by NWS

Home | Current Version | Previous Version | Graphics & Text | Print | Product List | Glossary On
Versions: 1 2 3 4 5 6 7 8 9 10 11 12 13 14 15 16 17 18 19 20 21 22 23 24 25 26
000
FTUS43 KABR 190853 AAA
TAFPIR
TAF AMD
KPIR 190853Z 1909/2006 VRB06KT P6SM SKC
     FM191500 16004KT 6SM BR SKC
     FM200100 13005KT 5SM BR SKC
     FM200500 14005KT 2SM BR FEW002 SCT080=

USA.gov is the U.S. government's official web portal to all federal, state and local government web resources and services.